Huvudsida
METAR-TAF:

METAR-TAF

Flygplatser :

Kefalinias internationella flygplats

Kefalinia, Grekland

latitud: 38-07N, longitud: 020-30E, höjd: 19 m

Aktuellt väderrapport

Denna rapport gjordes för 19 minuter sedan, klockan 04:50 UTC
Vind 4 kt från ost/nordost
Temperatur 13°C
Fuktighet 100%
Tryck 1025 hPa
Sikt 10 km eller mer
Spridda moln på en höjd av 1600 ft

METAR: LGKF 160450Z 06004KT 9999 SCT016 13/13 Q1025

Tid: 07:09 (05:09 UTC)

Väderprognos

Denna rapport gjordes för 3 timmar och 9 minuter sedan, klockan 02:00 UTC
Prognos gäller från 16 kl. 03 UTC till 16 kl. 12 UTC
Vind 5 kt från syd
Sikt 10 km eller mer
Få moln på en höjd av 2000 ft
Sannolikhet 30%
från 16 kl. 03 UTC till 16 kl. 08 UTC
Sikt: 5000 m
Spridda moln på en höjd av 800 ft
fuktdis

TAF: LGKF 160200Z 1603/1612 18005KT 9999 FEW020 PROB30 1603/1608 5000 BR SCT008

Aktuella väderrapporter och prognoser från 4000 flygplatser (METAR- och TAF-rapporter).

De tillgängliga stationerna syns som gula och röda prickar på kartan.

För musen över prickarna för att se namnen på stationerna.

Klicka sedan för att få väderrapporter och prognoser.

För att ändra kartan: Klicka på de gröna knapparna med ett svart kors på för att zooma in; den gröna knappen med ett streck på för att zooma ut; eller på de gröna pilarna för angränsande kartor.


METAR-TAF: